createdAt,value
2022-11-25T00:01:07.376Z,126.75
2022-11-25T00:03:36.216Z,101.47
2022-11-25T00:06:12.379Z,100.90
2022-11-25T00:08:40.853Z,94.25
2022-11-25T00:11:10.518Z,99.95
2022-11-25T00:13:38.979Z,102.22
2022-11-25T00:16:10.607Z,91.10
2022-11-25T00:18:39.576Z,84.70
2022-11-25T00:21:08.673Z,102.53
2022-11-25T00:23:37.340Z,77.50
2022-11-25T00:26:11.791Z,81.95
2022-11-25T00:28:40.520Z,75.22
2022-11-25T00:31:12.561Z,87.40
2022-11-25T00:33:40.896Z,43.38
2022-11-25T00:36:16.337Z,58.53
2022-11-25T00:38:45.819Z,64.38
2022-11-25T00:41:41.669Z,50.95
2022-11-25T00:44:28.973Z,71.70
2022-11-25T00:46:56.730Z,79.72
2022-11-25T00:49:24.546Z,73.63
2022-11-25T00:51:52.816Z,78.35
2022-11-25T00:54:20.609Z,103.22
2022-11-25T00:56:49.861Z,81.70
2022-11-25T00:59:18.655Z,89.55
2022-11-25T01:01:46.482Z,82.68
2022-11-25T01:04:14.520Z,107.70
2022-11-25T01:06:42.596Z,87.18
2022-11-25T01:09:11.684Z,81.82
2022-11-25T01:11:40.359Z,98.22
2022-11-25T01:14:09.668Z,62.35
2022-11-25T01:16:37.771Z,82.22
2022-11-25T01:19:08.511Z,67.30
2022-11-25T01:21:36.500Z,94.03
2022-11-25T01:24:06.412Z,96.15
2022-11-25T01:26:35.880Z,77.72
2022-11-25T01:29:05.268Z,82.03
2022-11-25T01:31:37.622Z,75.60
2022-11-25T01:34:08.252Z,119.13
2022-11-25T01:36:36.529Z,70.13
2022-11-25T01:39:05.575Z,40.60
2022-11-25T01:41:34.998Z,28.60
2022-11-25T01:44:08.782Z,30.50
2022-11-25T01:47:01.873Z,62.40
2022-11-25T01:49:40.018Z,60.08
2022-11-25T01:52:16.405Z,48.80
2022-11-25T01:54:49.598Z,50.20
2022-11-25T01:57:22.755Z,39.85
2022-11-25T01:59:53.257Z,53.83
2022-11-25T02:02:22.846Z,66.72
2022-11-25T02:04:51.185Z,33.47
2022-11-25T02:07:25.135Z,49.63
2022-11-25T02:09:53.343Z,49.78
2022-11-25T02:12:22.669Z,36.97
2022-11-25T02:14:52.669Z,33.85
2022-11-25T02:17:22.308Z,64.43
2022-11-25T02:19:59.136Z,100.65
2022-11-25T02:22:37.124Z,149.85
2022-11-25T02:25:18.460Z,128.15
2022-11-25T02:27:48.862Z,172.77
2022-11-25T02:30:17.709Z,156.95
2022-11-25T02:32:46.107Z,133.90
2022-11-25T02:35:35.655Z,170.77
2022-11-25T02:38:10.189Z,175.60
2022-11-25T02:40:52.327Z,137.40
2022-11-25T02:43:20.414Z,168.40
2022-11-25T02:46:00.593Z,171.00
2022-11-25T02:49:00.878Z,149.10
2022-11-25T02:51:22.378Z,185.80
2022-11-25T02:53:50.563Z,182.02
2022-11-25T02:56:22.547Z,205.32
2022-11-25T02:58:50.311Z,326.27
2022-11-25T03:01:18.235Z,307.08
2022-11-25T03:03:46.166Z,361.75
2022-11-25T03:06:13.991Z,263.17
2022-11-25T03:08:41.756Z,294.02
2022-11-25T03:11:12.719Z,299.73
2022-11-25T03:13:41.936Z,347.35
2022-11-25T03:16:10.371Z,305.67
2022-11-25T03:18:38.389Z,342.85
2022-11-25T03:21:07.258Z,305.30
2022-11-25T03:23:36.038Z,274.08
2022-11-25T03:26:06.937Z,294.30
2022-11-25T03:28:34.969Z,343.15
2022-11-25T03:31:04.091Z,324.33
2022-11-25T03:33:31.944Z,361.92
2022-11-25T03:35:59.696Z,313.85
2022-11-25T03:38:27.525Z,272.08
2022-11-25T03:40:55.401Z,251.05
2022-11-25T03:43:23.219Z,221.43
2022-11-25T03:45:51.220Z,218.45
2022-11-25T03:48:20.459Z,199.70
2022-11-25T03:50:49.320Z,223.05
2022-11-25T03:53:17.069Z,173.23
2022-11-25T03:55:45.261Z,150.30
2022-11-25T03:58:13.071Z,149.65
2022-11-25T04:00:40.848Z,172.57
2022-11-25T04:03:08.681Z,174.20
2022-11-25T04:05:37.790Z,159.02
2022-11-25T04:08:08.159Z,200.77
2022-11-25T04:10:37.100Z,255.57
2022-11-25T04:13:05.638Z,117.60
2022-11-25T04:15:37.618Z,178.23
2022-11-25T04:18:06.472Z,228.00
2022-11-25T04:20:35.043Z,203.13
2022-11-25T04:23:07.165Z,236.15
2022-11-25T04:25:38.346Z,178.30
2022-11-25T04:28:12.910Z,197.13
2022-11-25T04:30:41.914Z,225.77
2022-11-25T04:33:09.869Z,239.20
2022-11-25T04:35:37.676Z,245.70
2022-11-25T04:38:06.881Z,208.55
2022-11-25T04:40:36.656Z,242.82
2022-11-25T04:43:13.672Z,168.00
2022-11-25T04:46:12.912Z,173.43
2022-11-25T04:48:37.485Z,251.48
2022-11-25T04:51:05.509Z,223.57
2022-11-25T04:53:35.010Z,279.63
2022-11-25T04:56:02.768Z,197.32
2022-11-25T04:59:02.147Z,215.40
2022-11-25T05:01:30.825Z,190.30
2022-11-25T05:04:09.614Z,174.82
2022-11-25T05:06:37.645Z,155.27
2022-11-25T05:09:07.644Z,143.23
2022-11-25T05:11:38.094Z,123.30
2022-11-25T05:14:06.579Z,169.90
2022-11-25T05:16:35.170Z,133.18
2022-11-25T05:19:04.008Z,161.10
2022-11-25T05:21:31.808Z,136.00
2022-11-25T05:23:59.723Z,151.13
2022-11-25T05:26:31.736Z,121.85
2022-11-25T05:29:00.912Z,163.75
2022-11-25T05:31:30.493Z,206.05
2022-11-25T05:34:01.806Z,210.13
2022-11-25T05:36:30.214Z,192.38
2022-11-25T05:38:58.539Z,164.65
2022-11-25T05:41:41.879Z,150.70
2022-11-25T05:44:09.710Z,165.25
2022-11-25T05:46:38.553Z,211.07
2022-11-25T05:49:06.681Z,188.20
2022-11-25T05:51:34.426Z,161.82
2022-11-25T05:54:04.972Z,176.40
2022-11-25T05:56:35.392Z,172.30
2022-11-25T05:59:40.153Z,152.85
2022-11-25T06:02:31.126Z,143.55
2022-11-25T06:04:59.039Z,146.25
2022-11-25T06:07:26.842Z,177.27
2022-11-25T06:10:00.049Z,149.60
2022-11-25T06:12:31.378Z,118.55
2022-11-25T06:15:00.616Z,128.07
2022-11-25T06:17:28.765Z,171.50
2022-11-25T06:20:05.901Z,185.40
2022-11-25T06:22:33.733Z,150.65
2022-11-25T06:25:04.038Z,158.52
2022-11-25T06:27:57.002Z,148.90
2022-11-25T06:30:23.164Z,153.52
2022-11-25T06:33:04.140Z,151.02
2022-11-25T06:35:31.920Z,140.25
2022-11-25T06:38:02.624Z,137.32
2022-11-25T06:40:30.368Z,172.57
2022-11-25T06:42:58.095Z,172.65
2022-11-25T06:45:27.306Z,190.60
2022-11-25T06:47:55.049Z,234.93
2022-11-25T06:50:22.804Z,149.07
2022-11-25T06:52:50.534Z,163.05
2022-11-25T06:55:18.409Z,144.15
2022-11-25T06:57:46.156Z,121.63
2022-11-25T07:00:14.873Z,156.65
2022-11-25T07:02:48.198Z,175.85
2022-11-25T07:05:16.504Z,152.93
2022-11-25T07:07:44.354Z,107.97
2022-11-25T07:10:12.495Z,120.53
2022-11-25T07:12:40.717Z,85.60
2022-11-25T07:15:08.969Z,122.72
2022-11-25T07:17:36.690Z,74.88
2022-11-25T07:20:07.299Z,95.32
2022-11-25T07:22:35.020Z,83.53
2022-11-25T07:25:03.956Z,60.88
2022-11-25T07:27:31.689Z,79.25
2022-11-25T07:30:29.678Z,97.68
2022-11-25T07:32:47.188Z,114.85
2022-11-25T07:35:16.484Z,118.47
2022-11-25T07:37:44.279Z,85.95
2022-11-25T07:40:13.300Z,78.22
2022-11-25T07:42:41.044Z,72.18
2022-11-25T07:45:11.073Z,50.40
2022-11-25T07:47:43.333Z,50.05
2022-11-25T07:50:11.479Z,43.38
2022-11-25T07:52:41.931Z,36.75
2022-11-25T07:55:10.417Z,48.60
2022-11-25T07:57:38.155Z,39.53
2022-11-25T08:00:07.540Z,46.00
2022-11-25T08:02:39.630Z,55.60
2022-11-25T08:05:08.477Z,81.18
2022-11-25T08:07:36.855Z,102.70
2022-11-25T08:10:07.124Z,89.70
2022-11-25T08:12:34.950Z,72.28
2022-11-25T08:15:02.732Z,63.10
2022-11-25T08:17:30.493Z,83.65
2022-11-25T08:19:58.799Z,49.15
2022-11-25T08:22:26.557Z,55.92
2022-11-25T08:24:54.280Z,53.80
2022-11-25T08:27:23.403Z,46.88
2022-11-25T08:29:51.176Z,47.72
2022-11-25T08:32:18.982Z,105.30
2022-11-25T08:34:46.730Z,108.30
2022-11-25T08:37:14.632Z,59.75
2022-11-25T08:39:58.241Z,56.10
2022-11-25T08:42:28.103Z,50.95
2022-11-25T08:44:57.011Z,65.47
2022-11-25T08:47:25.206Z,60.03
2022-11-25T08:49:53.645Z,78.22
2022-11-25T08:52:21.896Z,48.47
2022-11-25T08:54:50.466Z,63.42
2022-11-25T08:57:18.232Z,70.75
2022-11-25T08:59:47.319Z,53.13
2022-11-25T09:02:17.798Z,74.32
2022-11-25T09:04:45.860Z,89.53
2022-11-25T09:07:13.723Z,106.35
2022-11-25T09:09:41.551Z,71.50
2022-11-25T09:12:09.394Z,88.18
2022-11-25T09:14:37.146Z,81.90
2022-11-25T09:17:11.149Z,78.53
2022-11-25T09:19:39.194Z,94.97
2022-11-25T09:22:07.840Z,71.38
2022-11-25T09:24:35.758Z,57.60
2022-11-25T09:27:03.531Z,76.22
2022-11-25T09:29:31.369Z,68.60
2022-11-25T09:31:59.214Z,53.65
2022-11-25T09:34:28.345Z,58.30
2022-11-25T09:36:56.101Z,72.65
2022-11-25T09:39:28.066Z,60.15
2022-11-25T09:42:24.391Z,61.60
2022-11-25T09:45:21.883Z,50.55
2022-11-25T09:47:59.354Z,40.55
2022-11-25T09:50:42.124Z,48.50
2022-11-25T09:53:22.762Z,40.67
2022-11-25T09:56:01.159Z,48.95
2022-11-25T09:58:34.977Z,55.28
2022-11-25T10:01:07.038Z,42.90
2022-11-25T10:03:40.145Z,53.83
2022-11-25T10:06:15.940Z,50.63
2022-11-25T10:08:46.540Z,44.88
2022-11-25T10:11:27.427Z,45.50
2022-11-25T10:13:59.524Z,54.15
2022-11-25T10:16:35.342Z,43.15
2022-11-25T10:19:06.910Z,48.10
2022-11-25T10:21:36.313Z,46.33
2022-11-25T10:24:05.738Z,37.17
2022-11-25T10:26:38.312Z,34.42
2022-11-25T10:29:23.409Z,35.17
2022-11-25T10:31:55.601Z,44.45
2022-11-25T10:34:29.845Z,35.33
2022-11-25T10:37:01.520Z,41.05
2022-11-25T10:39:32.323Z,35.17
2022-11-25T10:42:04.627Z,42.83
2022-11-25T10:44:34.082Z,41.90
2022-11-25T10:47:18.689Z,40.92
2022-11-25T10:49:57.862Z,36.80
2022-11-25T10:52:31.154Z,36.80
2022-11-25T10:55:09.516Z,40.95
2022-11-25T10:57:37.447Z,38.05
2022-11-25T11:00:12.792Z,42.63
2022-11-25T11:02:48.194Z,35.08
2022-11-25T11:05:23.075Z,37.92
2022-11-25T11:08:19.407Z,33.83
2022-11-25T11:10:51.618Z,31.35
2022-11-25T11:13:25.804Z,27.85
2022-11-25T11:15:54.865Z,30.70
2022-11-25T11:18:26.901Z,32.88
2022-11-25T11:20:56.518Z,35.45
2022-11-25T11:23:26.570Z,33.47
2022-11-25T11:26:02.708Z,33.78
2022-11-25T11:28:39.184Z,32.33
2022-11-25T11:31:17.456Z,33.88
2022-11-25T11:33:56.642Z,40.03
2022-11-25T11:36:52.597Z,34.20
2022-11-25T11:39:51.139Z,33.67
2022-11-25T11:42:31.041Z,34.28
2022-11-25T11:45:06.166Z,37.90
2022-11-25T11:47:39.557Z,34.85
2022-11-25T11:50:24.202Z,37.65
2022-11-25T11:52:58.480Z,39.08
2022-11-25T11:55:39.872Z,31.73
2022-11-25T11:58:18.285Z,33.90
2022-11-25T12:00:55.332Z,37.33
2022-11-25T12:03:26.291Z,37.72
2022-11-25T12:05:57.304Z,34.13
2022-11-25T12:08:32.853Z,30.48
2022-11-25T12:11:05.800Z,31.67
2022-11-25T12:13:41.467Z,35.90
2022-11-25T12:16:13.079Z,35.58
2022-11-25T12:18:50.138Z,32.33
2022-11-25T12:21:30.762Z,35.53
2022-11-25T12:24:05.712Z,32.42
2022-11-25T12:26:44.301Z,34.15
2022-11-25T12:29:18.057Z,30.60
2022-11-25T12:31:52.990Z,29.85
2022-11-25T12:34:28.924Z,33.28
2022-11-25T12:37:10.625Z,30.83
2022-11-25T12:39:46.341Z,26.27
2022-11-25T12:42:17.214Z,24.20
2022-11-25T12:44:53.263Z,28.67
2022-11-25T12:47:22.612Z,29.38
2022-11-25T12:49:52.823Z,32.80
2022-11-25T12:52:36.930Z,26.73
2022-11-25T12:55:13.437Z,34.35
2022-11-25T12:58:16.896Z,28.98
2022-11-25T13:01:20.602Z,26.70
2022-11-25T13:04:09.736Z,29.92
2022-11-25T13:07:09.270Z,27.65
2022-11-25T13:10:10.483Z,23.48
2022-11-25T13:12:47.351Z,28.98
2022-11-25T13:15:37.840Z,25.90
2022-11-25T13:18:12.376Z,27.80
2022-11-25T13:20:44.976Z,31.40
2022-11-25T13:23:45.988Z,35.50
2022-11-25T13:26:50.631Z,34.90
2022-11-25T13:30:00.896Z,33.35
2022-11-25T13:32:49.527Z,32.05
2022-11-25T13:35:38.038Z,31.23
2022-11-25T13:38:38.467Z,32.92
2022-11-25T13:41:25.468Z,34.40
2022-11-25T13:44:01.697Z,28.98
2022-11-25T13:46:38.257Z,31.40
2022-11-25T13:49:07.821Z,26.08
2022-11-25T13:51:37.950Z,27.67
2022-11-25T13:54:07.630Z,29.23
2022-11-25T13:56:37.531Z,28.88
2022-11-25T13:59:35.714Z,34.97
2022-11-25T14:02:35.674Z,26.00
2022-11-25T14:05:21.469Z,37.38
2022-11-25T14:08:07.535Z,22.35
2022-11-25T14:10:46.491Z,30.90
2022-11-25T14:13:40.825Z,25.20
2022-11-25T14:16:20.760Z,29.52
2022-11-25T14:22:11.503Z,25.50
2022-11-25T14:24:44.144Z,25.58
2022-11-25T14:27:18.666Z,33.10
2022-11-25T14:29:51.784Z,31.67
2022-11-25T14:32:22.384Z,28.60
2022-11-25T14:34:55.769Z,29.90
2022-11-25T14:37:29.520Z,29.27
2022-11-25T14:40:02.101Z,29.00
2022-11-25T14:42:38.292Z,29.10
2022-11-25T14:45:21.555Z,26.52
2022-11-25T14:47:49.433Z,29.15
2022-11-25T14:50:34.200Z,28.60
2022-11-25T14:53:07.120Z,30.92
2022-11-25T14:55:37.699Z,31.33
2022-11-25T14:58:05.695Z,27.15
2022-11-25T15:00:33.710Z,28.95
2022-11-25T15:03:03.392Z,29.33
2022-11-25T15:05:34.808Z,30.02
2022-11-25T15:08:04.418Z,25.92
2022-11-25T15:10:41.858Z,30.23
2022-11-25T15:13:27.083Z,28.25
2022-11-25T15:15:55.925Z,28.98
2022-11-25T15:18:25.825Z,29.25
2022-11-25T15:20:58.903Z,26.92
2022-11-25T15:23:31.862Z,32.15
2022-11-25T15:26:01.940Z,24.60
2022-11-25T15:28:36.068Z,23.30
2022-11-25T15:31:10.241Z,24.85
2022-11-25T15:33:38.805Z,25.33
2022-11-25T15:36:07.148Z,23.35
2022-11-25T15:38:38.171Z,27.25
2022-11-25T15:41:14.616Z,20.75
2022-11-25T15:43:47.318Z,23.63
2022-11-25T15:46:16.668Z,30.75
2022-11-25T15:48:46.685Z,25.30
2022-11-25T15:51:31.917Z,26.42
2022-11-25T15:54:03.961Z,23.95
2022-11-25T15:56:36.500Z,25.02
2022-11-25T15:59:04.356Z,28.33
2022-11-25T16:01:32.299Z,30.60
2022-11-25T16:04:20.453Z,24.58
2022-11-25T16:06:56.963Z,23.17
2022-11-25T16:09:28.618Z,28.13
2022-11-25T16:12:07.020Z,27.17
2022-11-25T16:14:37.850Z,36.05
2022-11-25T16:17:10.899Z,20.95
2022-11-25T16:19:42.083Z,28.15
2022-11-25T16:22:15.945Z,22.70
2022-11-25T16:24:50.431Z,27.95
2022-11-25T16:27:23.095Z,30.13
2022-11-25T16:29:54.544Z,23.88
2022-11-25T16:32:24.238Z,33.55
2022-11-25T16:34:52.340Z,23.33
2022-11-25T16:37:20.084Z,24.33
2022-11-25T16:39:47.822Z,28.05
2022-11-25T16:42:21.129Z,25.75
2022-11-25T16:44:50.945Z,25.80
2022-11-25T16:47:19.750Z,32.97
2022-11-25T16:49:47.549Z,24.35
2022-11-25T16:52:15.431Z,26.38
2022-11-25T16:54:43.218Z,27.70
2022-11-25T16:57:17.327Z,31.20
2022-11-25T16:59:48.722Z,21.65
2022-11-25T17:02:19.598Z,28.70
2022-11-25T17:04:48.541Z,33.42
2022-11-25T17:07:34.527Z,30.70
2022-11-25T17:10:02.955Z,26.92
2022-11-25T17:12:33.874Z,27.65
2022-11-25T17:15:06.066Z,24.20
2022-11-25T17:17:34.916Z,26.80
2022-11-25T17:20:02.767Z,28.13
2022-11-25T17:22:36.091Z,28.40
2022-11-25T17:25:07.105Z,36.15
2022-11-25T17:27:35.084Z,35.17
2022-11-25T17:30:06.406Z,30.10
2022-11-25T17:32:35.201Z,38.05
2022-11-25T17:35:02.905Z,27.98
2022-11-25T17:37:32.793Z,21.88
2022-11-25T17:40:00.621Z,32.58
2022-11-25T17:42:31.681Z,32.15
2022-11-25T17:45:00.599Z,32.55
2022-11-25T17:47:29.689Z,30.55
2022-11-25T17:49:57.789Z,25.90
2022-11-25T17:52:25.596Z,26.40
2022-11-25T17:54:53.398Z,28.52
2022-11-25T17:57:23.236Z,28.65
2022-11-25T17:59:51.252Z,27.73
2022-11-25T18:02:20.819Z,30.40
2022-11-25T18:04:50.316Z,25.00
2022-11-25T18:07:18.532Z,34.08
2022-11-25T18:09:46.413Z,38.80
2022-11-25T18:12:18.338Z,24.70
2022-11-25T18:14:46.432Z,34.97
2022-11-25T18:17:17.112Z,29.90
2022-11-25T18:19:49.799Z,35.28
2022-11-25T18:22:20.897Z,38.60
2022-11-25T18:24:48.702Z,34.53
2022-11-25T18:27:22.949Z,34.92
2022-11-25T18:29:51.355Z,43.63
2022-11-25T18:32:19.135Z,44.60
2022-11-25T18:34:48.022Z,42.92
2022-11-25T18:37:15.847Z,39.50
2022-11-25T18:39:45.022Z,43.42
2022-11-25T18:42:23.493Z,35.83
2022-11-25T18:44:51.387Z,49.35
2022-11-25T18:47:19.175Z,46.10
2022-11-25T18:49:51.006Z,49.80
2022-11-25T18:52:21.817Z,51.95
2022-11-25T18:54:50.948Z,62.55
2022-11-25T18:57:18.832Z,52.88
2022-11-25T18:59:56.022Z,61.00
2022-11-25T19:02:35.129Z,47.15
2022-11-25T19:05:03.777Z,57.08
2022-11-25T19:07:31.605Z,69.85
2022-11-25T19:10:00.745Z,50.88
2022-11-25T19:12:28.551Z,55.22
2022-11-25T19:14:57.192Z,56.60
2022-11-25T19:17:25.997Z,87.82
2022-11-25T19:19:53.761Z,99.75
2022-11-25T19:22:22.666Z,74.53
2022-11-25T19:24:50.399Z,108.30
2022-11-25T19:27:23.361Z,78.25
2022-11-25T19:29:52.831Z,71.38
2022-11-25T19:32:23.683Z,69.93
2022-11-25T19:34:53.997Z,59.75
2022-11-25T19:37:23.460Z,58.13
2022-11-25T19:39:52.976Z,56.75
2022-11-25T19:42:24.623Z,88.22
2022-11-25T19:44:52.991Z,70.43
2022-11-25T19:47:23.678Z,53.53
2022-11-25T19:49:53.842Z,62.47
2022-11-25T19:52:23.372Z,50.83
2022-11-25T19:54:51.277Z,62.15
2022-11-25T19:57:22.931Z,42.17
2022-11-25T19:59:50.939Z,50.88
2022-11-25T20:02:21.864Z,64.07
2022-11-25T20:04:52.047Z,52.30
2022-11-25T20:07:22.413Z,51.58
2022-11-25T20:09:51.583Z,55.33
2022-11-25T20:12:24.059Z,63.00
2022-11-25T20:14:52.723Z,60.63
2022-11-25T20:17:27.435Z,66.38
2022-11-25T20:19:58.029Z,61.08
2022-11-25T20:22:29.916Z,70.47
2022-11-25T20:25:01.348Z,54.05
2022-11-25T20:27:30.520Z,49.67
2022-11-25T20:29:58.387Z,42.78
2022-11-25T20:32:28.862Z,52.63
2022-11-25T20:34:57.137Z,48.35
2022-11-25T20:37:25.905Z,42.28
2022-11-25T20:39:54.990Z,44.90
2022-11-25T20:42:24.052Z,43.22
2022-11-25T20:44:57.509Z,40.90
2022-11-25T20:47:27.207Z,40.28
2022-11-25T20:49:55.016Z,37.88
2022-11-25T20:52:28.134Z,43.05
2022-11-25T20:54:55.888Z,49.08
2022-11-25T20:57:23.748Z,44.33
2022-11-25T20:59:52.836Z,49.63
2022-11-25T21:02:21.537Z,51.55
2022-11-25T21:04:49.484Z,46.83
2022-11-25T21:07:18.542Z,43.50
2022-11-25T21:09:46.356Z,43.85
2022-11-25T21:12:19.258Z,43.33
2022-11-25T21:14:47.695Z,44.25
2022-11-25T21:17:16.821Z,53.00
2022-11-25T21:19:44.591Z,37.17
2022-11-25T21:22:14.520Z,45.85
2022-11-25T21:24:42.772Z,55.47
2022-11-25T21:27:15.142Z,47.28
2022-11-25T21:29:43.928Z,38.33
2022-11-25T21:32:21.382Z,39.88
2022-11-25T21:34:49.469Z,41.00
2022-11-25T21:37:17.911Z,40.08
2022-11-25T21:39:45.904Z,47.47
2022-11-25T21:42:22.123Z,41.20
2022-11-25T21:44:51.884Z,46.00
2022-11-25T21:47:23.421Z,42.90
2022-11-25T21:49:51.842Z,40.47
2022-11-25T21:52:20.228Z,41.42
2022-11-25T21:54:48.423Z,40.45
2022-11-25T21:57:17.762Z,42.47
2022-11-25T21:59:47.109Z,41.38
2022-11-25T22:02:18.548Z,41.80
2022-11-25T22:04:47.750Z,36.67
2022-11-25T22:07:15.645Z,46.75
2022-11-25T22:09:43.809Z,42.92
2022-11-25T22:12:27.594Z,41.78
2022-11-25T22:14:56.031Z,45.85
2022-11-25T22:17:23.850Z,37.40
2022-11-25T22:19:53.404Z,41.92
2022-11-25T22:22:21.196Z,51.10
2022-11-25T22:24:49.016Z,40.92
2022-11-25T22:27:22.289Z,45.58
2022-11-25T22:29:50.607Z,36.45
2022-11-25T22:32:19.061Z,34.53
2022-11-25T22:34:48.252Z,44.03
2022-11-25T22:37:19.284Z,39.53
2022-11-25T22:39:47.613Z,42.35
2022-11-25T22:42:19.544Z,45.50
2022-11-25T22:44:49.884Z,33.13
2022-11-25T22:47:26.071Z,37.10
2022-11-25T22:49:54.470Z,49.80
2022-11-25T22:52:26.974Z,41.20
2022-11-25T22:54:55.465Z,41.03
2022-11-25T22:57:23.206Z,44.05
2022-11-25T22:59:51.032Z,46.45
2022-11-25T23:02:21.562Z,36.30
2022-11-25T23:04:52.659Z,43.38
2022-11-25T23:07:20.923Z,39.03
2022-11-25T23:09:50.428Z,38.10
2022-11-25T23:12:18.798Z,32.70
2022-11-25T23:14:46.595Z,40.80
2022-11-25T23:17:20.709Z,41.63
2022-11-25T23:19:49.023Z,38.72
2022-11-25T23:22:17.122Z,38.10
2022-11-25T23:24:48.480Z,38.83
2022-11-25T23:27:17.817Z,34.67
2022-11-25T23:29:45.876Z,35.08
2022-11-25T23:32:20.545Z,33.10
2022-11-25T23:34:50.519Z,32.00
2022-11-25T23:37:18.531Z,36.53
2022-11-25T23:39:52.165Z,35.80
2022-11-25T23:42:21.437Z,41.70
2022-11-25T23:44:49.177Z,33.88
2022-11-25T23:47:21.257Z,32.75
2022-11-25T23:49:51.716Z,34.53
2022-11-25T23:52:23.208Z,37.83
2022-11-25T23:54:52.755Z,31.60
2022-11-25T23:57:24.312Z,34.85
2022-11-25T23:59:52.919Z,29.15
